FDX3072 KMEM-EDDF
Flight info
| Callsign | FDX3072 |
|---|---|
| Flight time | N/A |
| Altitude | 33000 |
| Route | CRSON7 HUMMS DCT TINGS J29 PXV DCT ROD DCT YXU DCT YXI DCT ANCER N701A NEEKO/M081F350 DCT 54N050W 54N040W 54N030W 54N020W DCT DOGAL DCT BEXET/N0471F370 DCT ERABI DCT ENJEX DCT ADHAV DCT AGCAT DCT AXNEF DCT ZIPWE DCT OZZIL DCT SAWPE Q63 CPT UL9 BIG L607 KONAN DCT KOK UL607 SPI T180 NIVNU/N0401F230 T847 IMCOM IMCOM1A |
| Aircraft | MD11/H-SDE1E2E3FGHIJ2J3J4J5M1RWXY/LB1D1 |
Departure
| Time | N/A |
|---|---|
| Airport | Memphis International Airport (KMEM) |
Arrival
| Time | 2026-04-17 01:21 |
|---|---|
| Airport | Frankfurt Main Airport (EDDF) |
| Time | Latitude | Longitude | Altitude | Speed | Heading |
|---|---|---|---|---|---|
| 2026-04-17 00:43 | 50.67108 | 4.86838 | 34759 ft | 474 kts | 107° |
| 2026-04-17 00:43 | 50.65196 | 4.96526 | 34760 ft | 474 kts | 108° |
| 2026-04-17 00:44 | 50.63143 | 5.06165 | 34757 ft | 474 kts | 108° |
| 2026-04-17 00:44 | 50.61086 | 5.15854 | 34762 ft | 474 kts | 108° |
| 2026-04-17 00:45 | 50.59056 | 5.25638 | 34758 ft | 474 kts | 108° |
| 2026-04-17 00:45 | 50.57008 | 5.35454 | 34758 ft | 474 kts | 108° |
| 2026-04-17 00:46 | 50.54983 | 5.45292 | 34405 ft | 477 kts | 107° |
| 2026-04-17 00:46 | 50.53970 | 5.50198 | 33907 ft | 473 kts | 107° |
| 2026-04-17 00:46 | 50.52967 | 5.55052 | 33440 ft | 468 kts | 107° |
| 2026-04-17 00:47 | 50.51971 | 5.59912 | 32980 ft | 462 kts | 107° |
| 2026-04-17 00:47 | 50.51006 | 5.64679 | 32525 ft | 457 kts | 106° |
| 2026-04-17 00:47 | 50.50116 | 5.69393 | 32069 ft | 452 kts | 106° |
| 2026-04-17 00:47 | 50.49256 | 5.74031 | 31637 ft | 446 kts | 107° |
| 2026-04-17 00:48 | 50.48374 | 5.78669 | 31210 ft | 442 kts | 107° |
| 2026-04-17 00:48 | 50.47489 | 5.83293 | 30790 ft | 442 kts | 107° |
| 2026-04-17 00:48 | 50.46614 | 5.87857 | 30328 ft | 440 kts | 107° |
| 2026-04-17 00:48 | 50.45736 | 5.92445 | 29859 ft | 436 kts | 107° |
| 2026-04-17 00:49 | 50.44875 | 5.96954 | 29400 ft | 433 kts | 107° |
| 2026-04-17 00:49 | 50.44025 | 6.01416 | 28946 ft | 429 kts | 106° |
| 2026-04-17 00:49 | 50.43183 | 6.05858 | 28496 ft | 426 kts | 106° |
| 2026-04-17 00:49 | 50.42339 | 6.10329 | 28042 ft | 422 kts | 106° |
| 2026-04-17 00:50 | 50.41517 | 6.14702 | 27609 ft | 419 kts | 106° |
| 2026-04-17 00:50 | 50.40705 | 6.19025 | 27179 ft | 417 kts | 106° |
| 2026-04-17 00:50 | 50.39887 | 6.23384 | 26741 ft | 414 kts | 106° |
| 2026-04-17 00:50 | 50.39092 | 6.27631 | 26321 ft | 413 kts | 106° |
| 2026-04-17 00:51 | 50.38283 | 6.31967 | 25887 ft | 409 kts | 106° |
| 2026-04-17 00:51 | 50.37491 | 6.36214 | 25463 ft | 407 kts | 106° |
| 2026-04-17 00:51 | 50.36760 | 6.40465 | 25046 ft | 404 kts | 103° |
| 2026-04-17 00:51 | 50.36237 | 6.44731 | 24631 ft | 401 kts | 97° |
| 2026-04-17 00:52 | 50.35922 | 6.49002 | 24224 ft | 399 kts | 95° |
| 2026-04-17 00:52 | 50.35666 | 6.53335 | 23818 ft | 399 kts | 95° |
| 2026-04-17 00:52 | 50.35399 | 6.57669 | 23400 ft | 396 kts | 95° |
| 2026-04-17 00:52 | 50.35136 | 6.61895 | 22997 ft | 392 kts | 95° |
| 2026-04-17 00:53 | 50.34872 | 6.66108 | 22605 ft | 389 kts | 96° |
| 2026-04-17 00:53 | 50.34610 | 6.70268 | 22219 ft | 386 kts | 96° |
| 2026-04-17 00:53 | 50.34349 | 6.74424 | 21834 ft | 384 kts | 96° |
| 2026-04-17 00:53 | 50.34092 | 6.78540 | 21457 ft | 382 kts | 96° |
| 2026-04-17 00:54 | 50.33801 | 6.82651 | 21073 ft | 380 kts | 98° |
| 2026-04-17 00:54 | 50.33270 | 6.86684 | 20703 ft | 378 kts | 106° |
| 2026-04-17 00:54 | 50.32403 | 6.90531 | 20341 ft | 376 kts | 113° |
| 2026-04-17 00:54 | 50.31321 | 6.94221 | 19974 ft | 374 kts | 116° |
| 2026-04-17 00:55 | 50.30187 | 6.97833 | 19611 ft | 372 kts | 116° |
| 2026-04-17 00:55 | 50.29046 | 7.01475 | 19258 ft | 370 kts | 115° |
| 2026-04-17 00:55 | 50.27957 | 7.05051 | 18908 ft | 369 kts | 115° |
| 2026-04-17 00:55 | 50.26868 | 7.08678 | 18554 ft | 366 kts | 115° |
| 2026-04-17 00:56 | 50.25804 | 7.12243 | 18224 ft | 365 kts | 115° |
| 2026-04-17 00:56 | 50.24742 | 7.15809 | 17884 ft | 362 kts | 115° |
| 2026-04-17 00:56 | 50.23677 | 7.19381 | 17554 ft | 361 kts | 115° |
| 2026-04-17 00:56 | 50.22627 | 7.22899 | 17218 ft | 359 kts | 115° |
| 2026-04-17 00:57 | 50.21574 | 7.26421 | 16888 ft | 358 kts | 115° |
| 2026-04-17 00:57 | 50.20532 | 7.29900 | 16554 ft | 356 kts | 115° |
| 2026-04-17 00:57 | 50.19516 | 7.33405 | 16216 ft | 354 kts | 112° |
| 2026-04-17 00:57 | 50.18618 | 7.36963 | 15898 ft | 352 kts | 110° |
| 2026-04-17 00:58 | 50.17783 | 7.40503 | 15584 ft | 351 kts | 109° |
| 2026-04-17 00:58 | 50.16957 | 7.44057 | 15267 ft | 349 kts | 109° |
| 2026-04-17 00:58 | 50.16127 | 7.47576 | 14955 ft | 347 kts | 110° |
| 2026-04-17 00:58 | 50.15279 | 7.51101 | 14641 ft | 346 kts | 110° |
| 2026-04-17 00:59 | 50.14435 | 7.54599 | 14330 ft | 344 kts | 110° |
| 2026-04-17 00:59 | 50.13607 | 7.58038 | 14026 ft | 342 kts | 110° |
| 2026-04-17 00:59 | 50.12770 | 7.61542 | 13718 ft | 341 kts | 110° |
| 2026-04-17 00:59 | 50.11955 | 7.64959 | 13413 ft | 340 kts | 111° |
| 2026-04-17 01:00 | 50.11011 | 7.68290 | 13117 ft | 338 kts | 117° |
| 2026-04-17 01:00 | 50.09847 | 7.71441 | 12854 ft | 335 kts | 123° |
| 2026-04-17 01:00 | 50.08538 | 7.74428 | 12598 ft | 335 kts | 126° |
| 2026-04-17 01:00 | 50.07183 | 7.77344 | 12331 ft | 334 kts | 126° |
| 2026-04-17 01:01 | 50.05828 | 7.80261 | 12070 ft | 333 kts | 126° |
| 2026-04-17 01:01 | 50.04493 | 7.83205 | 11805 ft | 332 kts | 125° |
| 2026-04-17 01:01 | 50.03194 | 7.86114 | 11545 ft | 329 kts | 124° |
| 2026-04-17 01:01 | 50.01907 | 7.89019 | 11279 ft | 324 kts | 124° |
| 2026-04-17 01:02 | 50.00704 | 7.91897 | 11012 ft | 316 kts | 117° |
| 2026-04-17 01:02 | 49.99986 | 7.95045 | 10796 ft | 305 kts | 99° |
| 2026-04-17 01:02 | 49.99984 | 7.98259 | 10730 ft | 296 kts | 79° |
| 2026-04-17 01:02 | 50.00549 | 8.01238 | 10760 ft | 288 kts | 69° |
| 2026-04-17 01:03 | 50.01325 | 8.04124 | 10723 ft | 292 kts | 66° |
| 2026-04-17 01:03 | 50.02150 | 8.06998 | 10662 ft | 293 kts | 66° |
| 2026-04-17 01:03 | 50.02954 | 8.09915 | 10568 ft | 289 kts | 67° |
| 2026-04-17 01:03 | 50.03694 | 8.12793 | 10460 ft | 286 kts | 69° |
| 2026-04-17 01:04 | 50.04388 | 8.15632 | 10354 ft | 285 kts | 69° |
| 2026-04-17 01:04 | 50.05080 | 8.18528 | 10181 ft | 284 kts | 69° |
| 2026-04-17 01:04 | 50.05764 | 8.21407 | 10025 ft | 284 kts | 69° |
| 2026-04-17 01:04 | 50.06444 | 8.24250 | 9880 ft | 282 kts | 69° |
| 2026-04-17 01:05 | 50.07127 | 8.27085 | 9729 ft | 277 kts | 69° |
| 2026-04-17 01:05 | 50.07811 | 8.29898 | 9596 ft | 276 kts | 69° |
| 2026-04-17 01:05 | 50.08492 | 8.32679 | 9480 ft | 276 kts | 69° |
| 2026-04-17 01:05 | 50.09170 | 8.35451 | 9377 ft | 276 kts | 69° |
| 2026-04-17 01:06 | 50.09851 | 8.38240 | 9275 ft | 276 kts | 69° |
| 2026-04-17 01:06 | 50.10519 | 8.41027 | 9146 ft | 275 kts | 69° |
| 2026-04-17 01:06 | 50.11175 | 8.43800 | 9022 ft | 274 kts | 69° |
| 2026-04-17 01:06 | 50.11830 | 8.46568 | 8899 ft | 274 kts | 69° |
| 2026-04-17 01:07 | 50.12488 | 8.49344 | 8776 ft | 274 kts | 69° |
| 2026-04-17 01:07 | 50.13141 | 8.52085 | 8655 ft | 273 kts | 69° |
| 2026-04-17 01:07 | 50.13807 | 8.54865 | 8532 ft | 273 kts | 69° |
| 2026-04-17 01:07 | 50.14464 | 8.57603 | 8412 ft | 272 kts | 69° |
| 2026-04-17 01:08 | 50.15125 | 8.60364 | 8293 ft | 272 kts | 69° |
| 2026-04-17 01:08 | 50.15782 | 8.63113 | 8171 ft | 271 kts | 69° |
| 2026-04-17 01:08 | 50.16432 | 8.65828 | 8050 ft | 271 kts | 70° |
| 2026-04-17 01:08 | 50.17097 | 8.68595 | 7928 ft | 270 kts | 70° |
| 2026-04-17 01:09 | 50.17750 | 8.71335 | 7813 ft | 270 kts | 70° |
| 2026-04-17 01:09 | 50.18387 | 8.74039 | 7698 ft | 269 kts | 70° |
| 2026-04-17 01:09 | 50.19041 | 8.76807 | 7581 ft | 269 kts | 70° |
| 2026-04-17 01:09 | 50.19678 | 8.79498 | 7466 ft | 268 kts | 70° |
| 2026-04-17 01:10 | 50.20322 | 8.82237 | 7350 ft | 268 kts | 70° |
| 2026-04-17 01:10 | 50.20960 | 8.84952 | 7198 ft | 268 kts | 70° |
| 2026-04-17 01:10 | 50.21604 | 8.87680 | 6872 ft | 266 kts | 70° |
| 2026-04-17 01:10 | 50.22237 | 8.90371 | 6562 ft | 264 kts | 70° |
| 2026-04-17 01:11 | 50.22863 | 8.93051 | 6259 ft | 262 kts | 70° |
| 2026-04-17 01:11 | 50.23470 | 8.95650 | 5923 ft | 250 kts | 70° |
| 2026-04-17 01:11 | 50.24054 | 8.98136 | 5574 ft | 241 kts | 70° |
| 2026-04-17 01:11 | 50.24616 | 9.00546 | 5218 ft | 232 kts | 70° |
| 2026-04-17 01:12 | 50.25158 | 9.02879 | 4885 ft | 225 kts | 70° |
| 2026-04-17 01:12 | 50.25692 | 9.05171 | 4819 ft | 227 kts | 70° |
| 2026-04-17 01:12 | 50.25835 | 9.07591 | 4799 ft | 224 kts | 102° |
| 2026-04-17 01:12 | 50.25122 | 9.09723 | 4835 ft | 226 kts | 134° |
| 2026-04-17 01:13 | 50.23779 | 9.10932 | 4818 ft | 226 kts | 167° |
| 2026-04-17 01:13 | 50.20454 | 9.07649 | 4789 ft | 226 kts | 258° |
| 2026-04-17 01:14 | 50.20180 | 9.05240 | 4715 ft | 226 kts | 259° |
| 2026-04-17 01:14 | 50.19973 | 9.02838 | 4690 ft | 227 kts | 253° |
| 2026-04-17 01:14 | 50.19183 | 9.00745 | 4791 ft | 227 kts | 231° |
| 2026-04-17 01:14 | 50.18192 | 8.98823 | 4756 ft | 227 kts | 232° |
| 2026-04-17 01:15 | 50.17281 | 8.96834 | 4756 ft | 227 kts | 237° |
| 2026-04-17 01:15 | 50.16472 | 8.94747 | 4756 ft | 227 kts | 240° |
| 2026-04-17 01:15 | 50.15725 | 8.92558 | 4756 ft | 227 kts | 243° |
| 2026-04-17 01:15 | 50.15022 | 8.90385 | 4756 ft | 227 kts | 243° |
| 2026-04-17 01:16 | 50.14307 | 8.88178 | 4756 ft | 227 kts | 243° |
| 2026-04-17 01:16 | 50.13589 | 8.85999 | 4755 ft | 227 kts | 243° |
| 2026-04-17 01:16 | 50.12803 | 8.83879 | 4755 ft | 227 kts | 237° |
| 2026-04-17 01:16 | 50.11924 | 8.81852 | 4742 ft | 227 kts | 235° |
| 2026-04-17 01:17 | 50.11076 | 8.79773 | 4208 ft | 233 kts | 241° |
| 2026-04-17 01:17 | 50.10373 | 8.77513 | 3770 ft | 228 kts | 247° |
| 2026-04-17 01:17 | 50.09814 | 8.75256 | 3453 ft | 220 kts | 250° |
| 2026-04-17 01:17 | 50.09318 | 8.73062 | 3162 ft | 211 kts | 251° |
| 2026-04-17 01:18 | 50.08848 | 8.70987 | 2899 ft | 195 kts | 250° |
| 2026-04-17 01:18 | 50.08405 | 8.69094 | 2601 ft | 180 kts | 250° |
| 2026-04-17 01:18 | 50.07978 | 8.67333 | 2370 ft | 169 kts | 249° |
| 2026-04-17 01:18 | 50.07573 | 8.65694 | 2129 ft | 160 kts | 249° |
| 2026-04-17 01:19 | 50.07193 | 8.64159 | 1922 ft | 152 kts | 249° |
| 2026-04-17 01:19 | 50.06829 | 8.62678 | 1738 ft | 149 kts | 249° |
| 2026-04-17 01:19 | 50.06467 | 8.61196 | 1534 ft | 150 kts | 249° |
| 2026-04-17 01:19 | 50.06100 | 8.59717 | 1313 ft | 151 kts | 249° |
| 2026-04-17 01:20 | 50.05747 | 8.58252 | 1098 ft | 150 kts | 250° |
| 2026-04-17 01:20 | 50.05389 | 8.56739 | 884 ft | 149 kts | 250° |
| 2026-04-17 01:20 | 50.05038 | 8.55248 | 681 ft | 149 kts | 250° |
| 2026-04-17 01:20 | 50.04678 | 8.53764 | 471 ft | 148 kts | 250° |
| 2026-04-17 01:21 | 50.04326 | 8.52298 | 368 ft | 136 kts | 250° |
| 2026-04-17 01:21 | 50.04095 | 8.51333 | 364 ft | 36 kts | 249° |
| 2026-04-17 01:21 | 50.03997 | 8.51059 | 362 ft | 25 kts | 229° |
| 2026-04-17 01:21 | 50.03894 | 8.50900 | 359 ft | 19 kts | 220° |
| 2026-04-17 01:22 | 50.03791 | 8.50877 | 359 ft | 16 kts | 133° |
| 2026-04-17 01:22 | 50.03732 | 8.51033 | 361 ft | 18 kts | 117° |
| 2026-04-17 01:22 | 50.03670 | 8.51230 | 361 ft | 22 kts | 116° |
| 2026-04-17 01:22 | 50.03633 | 8.51348 | 360 ft | 20 kts | 116° |
| 2026-04-17 01:23 | 50.03593 | 8.51475 | 358 ft | 23 kts | 116° |
| 2026-04-17 01:23 | 50.03544 | 8.51629 | 358 ft | 20 kts | 116° |
| 2026-04-17 01:23 | 50.03514 | 8.51805 | 358 ft | 23 kts | 88° |